createdAt,value
2019-06-07T00:01:52.954Z,10.40
2019-06-07T00:04:21.516Z,10.40
2019-06-07T00:06:49.025Z,10.30
2019-06-07T00:09:21.751Z,10.30
2019-06-07T00:11:45.801Z,10.30
2019-06-07T00:14:15.738Z,10.30
2019-06-07T00:16:42.543Z,10.40
2019-06-07T00:19:10.024Z,10.40
2019-06-07T00:24:08.772Z,10.40
2019-06-07T00:26:55.105Z,10.40
2019-06-07T00:29:05.683Z,10.20
2019-06-07T00:31:33.115Z,10.20
2019-06-07T00:34:00.650Z,10.10
2019-06-07T00:36:28.117Z,10.10
2019-06-07T00:38:55.603Z,10.10
2019-06-07T00:41:23.104Z,10.10
2019-06-07T00:43:50.559Z,10.10
2019-06-07T00:46:18.904Z,10.10
2019-06-07T00:48:47.284Z,10.00
2019-06-07T00:51:17.172Z,10.00
2019-06-07T00:53:44.098Z,9.90
2019-06-07T00:56:11.554Z,9.80
2019-06-07T00:58:38.986Z,9.80
2019-06-07T01:01:06.547Z,9.80
2019-06-07T01:03:33.995Z,9.70
2019-06-07T01:06:01.482Z,9.70
2019-06-07T01:08:30.262Z,9.70
2019-06-07T01:10:57.843Z,9.70
2019-06-07T01:13:26.991Z,9.60
2019-06-07T01:15:54.551Z,9.80
2019-06-07T01:18:43.498Z,9.80
2019-06-07T01:20:51.300Z,9.80
2019-06-07T01:23:54.270Z,9.80
2019-06-07T01:25:48.026Z,9.80
2019-06-07T01:28:16.661Z,9.70
2019-06-07T01:30:44.837Z,9.80
2019-06-07T01:33:12.306Z,9.70
2019-06-07T01:35:39.759Z,9.70
2019-06-07T01:38:07.239Z,9.70
2019-06-07T01:40:34.682Z,9.80
2019-06-07T01:43:02.124Z,9.70
2019-06-07T01:45:31.129Z,9.70
2019-06-07T01:47:58.769Z,9.70
2019-06-07T01:50:27.134Z,9.70
2019-06-07T01:52:54.684Z,9.80
2019-06-07T01:55:24.960Z,9.90
2019-06-07T01:57:51.413Z,10.00
2019-06-07T02:00:21.660Z,10.10
2019-06-07T02:02:49.021Z,10.20
2019-06-07T02:05:19.150Z,10.20
2019-06-07T02:07:45.845Z,10.30
2019-06-07T02:10:13.648Z,10.30
2019-06-07T02:12:43.623Z,10.30
2019-06-07T02:15:10.820Z,10.30
2019-06-07T02:17:38.312Z,10.30
2019-06-07T02:20:06.363Z,10.20
2019-06-07T02:22:33.843Z,10.20
2019-06-07T02:27:32.788Z,10.20
2019-06-07T02:30:00.164Z,10.30
2019-06-07T02:32:31.984Z,10.30
2019-06-07T02:34:56.940Z,10.30
2019-06-07T02:37:26.875Z,10.30
2019-06-07T02:39:53.672Z,10.30
2019-06-07T02:42:25.235Z,10.30
2019-06-07T02:44:50.445Z,10.40
2019-06-07T02:47:17.854Z,10.40
2019-06-07T02:49:45.284Z,10.40
2019-06-07T02:52:12.752Z,10.50
2019-06-07T02:54:40.934Z,10.50
2019-06-07T02:57:08.568Z,10.50
2019-06-07T03:00:02.838Z,10.50
2019-06-07T03:02:05.274Z,10.60
2019-06-07T03:04:40.570Z,10.50
2019-06-07T03:07:03.261Z,10.50
2019-06-07T03:09:34.410Z,10.40
2019-06-07T03:12:02.098Z,10.50
2019-06-07T03:14:35.243Z,10.50
2019-06-07T03:17:15.315Z,10.50
2019-06-07T03:19:45.292Z,10.50
2019-06-07T03:22:12.746Z,10.40
2019-06-07T03:24:44.126Z,10.50
2019-06-07T03:29:41.887Z,10.50
2019-06-07T03:32:09.308Z,10.60
2019-06-07T03:34:40.985Z,10.60
2019-06-07T03:37:06.038Z,10.50
2019-06-07T03:39:34.326Z,10.50
2019-06-07T03:42:06.783Z,10.60
2019-06-07T03:44:35.164Z,10.70
2019-06-07T03:47:01.325Z,10.50
2019-06-07T03:49:30.779Z,10.50
2019-06-07T03:51:58.056Z,10.60
2019-06-07T03:54:25.486Z,10.60
2019-06-07T03:56:52.963Z,10.60
2019-06-07T03:59:20.393Z,10.70
2019-06-07T04:01:48.721Z,10.80
2019-06-07T04:04:16.195Z,10.80
2019-06-07T04:06:43.667Z,10.80
2019-06-07T04:09:11.115Z,10.70
2019-06-07T04:11:39.401Z,10.70
2019-06-07T04:14:07.915Z,10.80
2019-06-07T04:16:40.416Z,10.70
2019-06-07T04:19:04.884Z,10.60
2019-06-07T04:21:35.082Z,10.60
2019-06-07T04:24:01.634Z,10.60
2019-06-07T04:26:31.429Z,10.60
2019-06-07T04:31:28.381Z,10.70
2019-06-07T04:33:55.941Z,10.60
2019-06-07T04:36:39.348Z,10.70
2019-06-07T04:38:54.135Z,10.70
2019-06-07T04:41:23.718Z,10.80
2019-06-07T04:43:51.157Z,10.70
2019-06-07T04:46:21.975Z,10.70
2019-06-07T04:48:50.478Z,10.80
2019-06-07T04:51:20.197Z,11.00
2019-06-07T04:53:47.689Z,11.20
2019-06-07T04:56:15.151Z,11.20
2019-06-07T04:58:43.253Z,11.40
2019-06-07T05:01:26.363Z,11.30
2019-06-07T05:03:44.064Z,11.50
2019-06-07T05:06:09.334Z,11.60
2019-06-07T05:08:40.573Z,11.60
2019-06-07T05:11:06.603Z,11.60
2019-06-07T05:13:36.740Z,11.80
2019-06-07T05:16:03.638Z,11.90
2019-06-07T05:18:33.658Z,12.00
2019-06-07T05:21:00.407Z,11.90
2019-06-07T05:24:02.538Z,11.70
2019-06-07T05:25:57.081Z,11.80
2019-06-07T05:28:24.546Z,11.70
2019-06-07T05:31:08.138Z,11.90
2019-06-07T05:33:21.423Z,12.20
2019-06-07T05:35:48.898Z,12.40
2019-06-07T05:38:16.355Z,12.50
2019-06-07T05:40:48.574Z,12.40
2019-06-07T05:43:24.287Z,12.50
2019-06-07T05:45:51.716Z,12.50
2019-06-07T05:48:19.163Z,12.60
2019-06-07T05:50:56.061Z,12.70
2019-06-07T05:53:15.873Z,12.70
2019-06-07T05:55:46.860Z,13.10
2019-06-07T05:58:12.621Z,13.10
2019-06-07T06:00:41.500Z,13.00
2019-06-07T06:03:09.659Z,13.20
2019-06-07T06:05:42.118Z,13.30
2019-06-07T06:08:06.358Z,13.40
2019-06-07T06:10:34.061Z,13.40
2019-06-07T06:13:01.573Z,13.50
2019-06-07T06:15:42.215Z,13.70
2019-06-07T06:17:58.382Z,13.60
2019-06-07T06:20:32.794Z,13.80
2019-06-07T06:22:55.063Z,14.20
2019-06-07T06:25:32.957Z,14.50
2019-06-07T06:28:12.460Z,14.50
2019-06-07T06:30:23.129Z,14.70
2019-06-07T06:32:57.441Z,15.00
2019-06-07T06:35:19.839Z,14.80
2019-06-07T06:37:53.060Z,15.00
2019-06-07T06:40:16.879Z,15.10
2019-06-07T06:42:45.432Z,15.00
2019-06-07T06:45:15.564Z,15.00
2019-06-07T06:47:43.947Z,15.20
2019-06-07T06:50:12.662Z,15.00
2019-06-07T06:52:43.632Z,14.90
2019-06-07T06:55:09.602Z,15.20
2019-06-07T06:57:40.196Z,15.40
2019-06-07T07:00:07.771Z,15.60
2019-06-07T07:03:06.105Z,15.70
2019-06-07T07:05:05.668Z,15.60
2019-06-07T07:07:33.431Z,15.70
2019-06-07T07:10:03.151Z,15.80
2019-06-07T07:12:30.870Z,15.80
2019-06-07T07:14:58.357Z,15.90
2019-06-07T07:17:47.154Z,15.90
2019-06-07T07:19:55.811Z,15.90
2019-06-07T07:22:23.304Z,16.10
2019-06-07T07:24:53.347Z,16.40
2019-06-07T07:27:20.334Z,16.20
2019-06-07T07:29:52.623Z,16.30
2019-06-07T07:32:17.488Z,16.30
2019-06-07T07:34:46.022Z,16.50
2019-06-07T07:37:14.259Z,16.60
2019-06-07T07:39:41.696Z,16.60
2019-06-07T07:42:20.721Z,16.90
2019-06-07T07:44:38.760Z,16.60
2019-06-07T07:47:06.482Z,16.80
2019-06-07T07:49:33.952Z,17.20
2019-06-07T07:52:01.730Z,17.40
2019-06-07T07:54:29.243Z,17.30
2019-06-07T07:56:57.392Z,17.30
2019-06-07T07:59:41.166Z,17.40
2019-06-07T08:01:56.003Z,17.50
2019-06-07T08:04:39.569Z,17.90
2019-06-07T08:06:55.713Z,17.70
2019-06-07T08:09:21.991Z,17.70
2019-06-07T08:11:51.934Z,17.50
2019-06-07T08:14:18.699Z,17.50
2019-06-07T08:16:47.023Z,17.30
2019-06-07T08:19:14.531Z,18.30
2019-06-07T08:21:41.948Z,18.90
2019-06-07T08:24:09.401Z,19.20
2019-06-07T08:26:36.846Z,19.30
2019-06-07T08:29:04.623Z,19.30
2019-06-07T08:31:32.044Z,19.10
2019-06-07T08:34:00.716Z,19.60
2019-06-07T08:36:41.478Z,19.80
2019-06-07T08:39:05.722Z,19.60
2019-06-07T08:41:27.100Z,19.10
2019-06-07T08:43:57.867Z,18.90
2019-06-07T08:46:23.833Z,19.00
2019-06-07T08:48:53.356Z,20.00
2019-06-07T08:51:20.602Z,20.00
2019-06-07T08:54:02.773Z,20.20
2019-06-07T08:56:17.668Z,20.20
2019-06-07T08:58:45.171Z,20.30
2019-06-07T09:01:12.868Z,20.40
2019-06-07T09:03:40.352Z,20.50
2019-06-07T09:06:53.778Z,21.00
2019-06-07T09:08:37.073Z,21.30
2019-06-07T09:11:10.466Z,21.50
2019-06-07T09:13:33.877Z,21.70
2019-06-07T09:16:08.074Z,21.60
2019-06-07T09:18:42.308Z,22.00
2019-06-07T09:21:01.202Z,22.40
2019-06-07T09:23:29.207Z,22.40
2019-06-07T09:26:05.181Z,21.90
2019-06-07T09:28:26.329Z,22.20
2019-06-07T09:30:53.811Z,22.20
2019-06-07T09:33:21.254Z,22.10
2019-06-07T09:35:48.737Z,21.70
2019-06-07T09:38:25.794Z,21.90
2019-06-07T09:40:45.452Z,22.10
2019-06-07T09:45:42.183Z,22.80
2019-06-07T09:48:15.723Z,22.50
2019-06-07T09:50:38.925Z,22.60
2019-06-07T09:53:20.342Z,23.10
2019-06-07T09:55:35.713Z,23.00
2019-06-07T09:58:30.890Z,23.40
2019-06-07T10:00:40.571Z,22.90
2019-06-07T10:03:08.853Z,23.10
2019-06-07T10:05:31.108Z,23.20
2019-06-07T10:08:12.389Z,23.70
2019-06-07T10:12:57.204Z,23.50
2019-06-07T10:15:24.653Z,24.20
2019-06-07T10:17:52.091Z,24.10
2019-06-07T10:20:19.599Z,24.30
2019-06-07T10:22:47.083Z,24.10
2019-06-07T10:25:14.851Z,23.90
2019-06-07T10:27:42.383Z,23.70
2019-06-07T10:30:10.437Z,24.00
2019-06-07T10:32:37.950Z,24.70
2019-06-07T10:35:07.630Z,24.50
2019-06-07T10:37:35.575Z,24.30
2019-06-07T10:40:04.825Z,24.00
2019-06-07T10:42:32.302Z,24.30
2019-06-07T10:45:02.054Z,24.50
2019-06-07T10:47:29.048Z,24.70
2019-06-07T10:49:56.540Z,24.90
2019-06-07T10:52:24.420Z,24.70
2019-06-07T10:54:51.884Z,24.90
2019-06-07T10:57:19.373Z,24.90
2019-06-07T10:59:46.845Z,25.00
2019-06-07T11:02:14.348Z,24.90
2019-06-07T11:04:41.851Z,24.90
2019-06-07T11:07:10.084Z,25.00
2019-06-07T11:09:38.079Z,25.50
2019-06-07T11:12:06.407Z,25.30
2019-06-07T11:14:34.284Z,25.30
2019-06-07T11:17:01.784Z,25.90
2019-06-07T11:19:29.324Z,26.50
2019-06-07T11:21:57.047Z,26.60
2019-06-07T11:24:24.903Z,26.90
2019-06-07T11:26:52.412Z,26.90
2019-06-07T11:29:19.833Z,26.50
2019-06-07T11:31:47.680Z,26.30
2019-06-07T11:34:15.173Z,26.50
2019-06-07T11:36:42.631Z,26.70
2019-06-07T11:39:11.078Z,27.30
2019-06-07T11:41:38.684Z,27.40
2019-06-07T11:44:06.708Z,27.00
2019-06-07T11:46:34.308Z,27.40
2019-06-07T11:49:01.819Z,28.20
2019-06-07T11:51:29.320Z,28.00
2019-06-07T11:53:56.847Z,27.50
2019-06-07T11:56:24.764Z,27.60
2019-06-07T11:58:52.324Z,28.00
2019-06-07T12:01:20.350Z,28.10
2019-06-07T12:03:47.827Z,27.90
2019-06-07T12:06:16.419Z,28.80
2019-06-07T12:08:44.060Z,28.50
2019-06-07T12:11:12.203Z,28.60
2019-06-07T12:13:39.704Z,29.10
2019-06-07T12:16:07.197Z,29.50
2019-06-07T12:18:34.721Z,29.60
2019-06-07T12:21:02.244Z,29.70
2019-06-07T12:23:29.735Z,29.70
2019-06-07T12:25:57.269Z,30.10
2019-06-07T12:28:24.785Z,30.30
2019-06-07T12:30:55.097Z,30.30
2019-06-07T12:33:21.736Z,30.10
2019-06-07T12:35:49.288Z,29.60
2019-06-07T12:38:18.840Z,29.80
2019-06-07T12:40:57.182Z,29.30
2019-06-07T12:43:16.723Z,29.40
2019-06-07T12:45:45.627Z,29.70
2019-06-07T12:48:17.535Z,29.90
2019-06-07T12:50:43.939Z,30.20
2019-06-07T12:53:11.752Z,30.70
2019-06-07T12:55:39.220Z,30.70
2019-06-07T12:58:06.691Z,30.70
2019-06-07T13:00:34.278Z,31.40
2019-06-07T13:03:01.690Z,30.50
2019-06-07T13:05:29.188Z,31.80
2019-06-07T13:07:56.685Z,30.90
2019-06-07T13:10:26.380Z,30.20
2019-06-07T13:12:53.923Z,30.80
2019-06-07T13:15:24.487Z,31.60
2019-06-07T13:17:51.913Z,32.10
2019-06-07T13:20:20.393Z,32.30
2019-06-07T13:22:48.092Z,31.00
2019-06-07T13:25:16.316Z,30.60
2019-06-07T13:27:43.941Z,30.50
2019-06-07T13:30:13.253Z,31.30
2019-06-07T13:32:40.712Z,31.50
2019-06-07T13:35:09.189Z,31.60
2019-06-07T13:37:36.920Z,32.10
2019-06-07T13:40:05.522Z,32.50
2019-06-07T13:42:33.839Z,32.20
2019-06-07T13:45:01.326Z,32.40
2019-06-07T13:47:28.818Z,32.40
2019-06-07T13:49:56.370Z,32.70
2019-06-07T13:52:23.837Z,31.80
2019-06-07T13:54:51.336Z,31.30
2019-06-07T13:57:19.971Z,32.10
2019-06-07T13:59:47.512Z,32.20
2019-06-07T14:02:14.969Z,33.00
2019-06-07T14:04:42.465Z,32.80
2019-06-07T14:07:09.950Z,32.70
2019-06-07T14:09:37.460Z,32.50
2019-06-07T14:12:04.922Z,32.30
2019-06-07T14:14:32.396Z,33.10
2019-06-07T14:16:59.905Z,33.90
2019-06-07T14:19:28.651Z,33.50
2019-06-07T14:21:56.259Z,33.80
2019-06-07T14:24:25.154Z,32.80
2019-06-07T14:27:07.891Z,33.00
2019-06-07T14:29:36.351Z,32.80
2019-06-07T14:32:05.787Z,32.90
2019-06-07T14:34:33.378Z,33.00
2019-06-07T14:37:00.854Z,33.10
2019-06-07T14:39:29.611Z,33.20
2019-06-07T14:42:08.387Z,32.80
2019-06-07T14:44:27.775Z,32.80
2019-06-07T14:46:55.846Z,33.10
2019-06-07T14:49:24.467Z,32.70
2019-06-07T14:51:52.161Z,33.60
2019-06-07T14:54:19.673Z,33.80
2019-06-07T14:56:47.140Z,33.80
2019-06-07T14:59:14.667Z,33.90
2019-06-07T15:01:42.070Z,34.10
2019-06-07T15:04:09.525Z,33.60
2019-06-07T15:06:37.015Z,33.60
2019-06-07T15:09:05.467Z,34.20
2019-06-07T15:11:33.172Z,34.20
2019-06-07T15:14:00.805Z,34.10
2019-06-07T15:16:30.127Z,33.70
2019-06-07T15:18:58.057Z,33.20
2019-06-07T15:21:26.612Z,33.40
2019-06-07T15:23:54.207Z,33.70
2019-06-07T15:26:22.004Z,33.90
2019-06-07T15:28:49.587Z,33.40
2019-06-07T15:31:18.382Z,33.90
2019-06-07T15:33:46.143Z,34.50
2019-06-07T15:36:13.642Z,33.90
2019-06-07T15:38:41.177Z,33.90
2019-06-07T15:41:08.882Z,33.80
2019-06-07T15:43:37.431Z,34.50
2019-06-07T15:46:05.042Z,34.60
2019-06-07T15:48:33.873Z,34.30
2019-06-07T15:51:01.525Z,33.60
2019-06-07T15:53:32.723Z,34.40
2019-06-07T15:55:58.325Z,34.70
2019-06-07T15:58:25.847Z,34.40
2019-06-07T16:00:53.625Z,34.20
2019-06-07T16:03:21.087Z,34.10
2019-06-07T16:05:48.600Z,33.90
2019-06-07T16:08:16.415Z,33.00
2019-06-07T16:10:44.073Z,33.20
2019-06-07T16:13:11.971Z,33.50
2019-06-07T16:15:39.455Z,34.10
2019-06-07T16:18:06.972Z,34.20
2019-06-07T16:20:35.211Z,33.20
2019-06-07T16:23:02.857Z,33.00
2019-06-07T16:25:30.350Z,33.00
2019-06-07T16:27:58.197Z,32.90
2019-06-07T16:30:25.650Z,33.00
2019-06-07T16:32:53.116Z,33.70
2019-06-07T16:35:20.620Z,33.20
2019-06-07T16:37:51.644Z,34.30
2019-06-07T16:40:17.504Z,34.00
2019-06-07T16:42:45.295Z,32.80
2019-06-07T16:45:13.623Z,32.10
2019-06-07T16:47:42.944Z,31.00
2019-06-07T16:50:11.285Z,30.10
2019-06-07T16:52:39.163Z,29.80
2019-06-07T16:55:07.367Z,29.60
2019-06-07T16:57:34.837Z,29.60
2019-06-07T17:00:04.135Z,29.70
2019-06-07T17:02:31.596Z,30.00
2019-06-07T17:04:59.079Z,30.20
2019-06-07T17:07:26.541Z,30.30
2019-06-07T17:09:53.998Z,30.30
2019-06-07T17:12:21.494Z,30.10
2019-06-07T17:14:49.018Z,29.60
2019-06-07T17:17:16.551Z,29.50
2019-06-07T17:19:44.989Z,29.30
2019-06-07T17:22:12.617Z,29.10
2019-06-07T17:24:41.235Z,28.70
2019-06-07T17:27:08.860Z,28.60
2019-06-07T17:29:36.740Z,28.50
2019-06-07T17:32:04.249Z,28.40
2019-06-07T17:34:31.708Z,28.30
2019-06-07T17:36:59.220Z,28.20
2019-06-07T17:39:26.676Z,28.00
2019-06-07T17:42:01.818Z,28.00
2019-06-07T17:44:23.476Z,27.80
2019-06-07T17:46:51.815Z,27.80
2019-06-07T17:49:19.308Z,27.80
2019-06-07T17:51:48.020Z,27.60
2019-06-07T17:54:16.248Z,27.60
2019-06-07T17:56:44.507Z,27.40
2019-06-07T17:59:12.032Z,27.30
2019-06-07T18:01:41.695Z,27.30
2019-06-07T18:04:08.757Z,27.10
2019-06-07T18:06:38.220Z,27.10
2019-06-07T18:09:07.212Z,27.00
2019-06-07T18:11:34.763Z,26.50
2019-06-07T18:14:10.146Z,25.60
2019-06-07T18:16:31.632Z,25.30
2019-06-07T18:18:59.116Z,25.00
2019-06-07T18:21:26.595Z,24.90
2019-06-07T18:23:54.792Z,24.70
2019-06-07T18:26:22.374Z,24.60
2019-06-07T18:28:50.585Z,24.40
2019-06-07T18:31:18.168Z,23.90
2019-06-07T18:33:46.842Z,23.80
2019-06-07T18:36:14.363Z,23.90
2019-06-07T18:38:42.155Z,23.70
2019-06-07T18:41:09.630Z,23.60
2019-06-07T18:43:37.111Z,23.30
2019-06-07T18:46:04.608Z,23.00
2019-06-07T18:48:32.060Z,22.60
2019-06-07T18:50:59.554Z,22.10
2019-06-07T18:53:27.023Z,21.40
2019-06-07T18:55:54.557Z,20.20
2019-06-07T18:58:22.065Z,19.00
2019-06-07T19:00:49.902Z,17.90
2019-06-07T19:03:17.756Z,17.40
2019-06-07T19:05:45.286Z,17.00
2019-06-07T19:08:12.883Z,16.80
2019-06-07T19:10:40.558Z,16.70
2019-06-07T19:13:08.052Z,16.60
2019-06-07T19:15:35.715Z,16.50
2019-06-07T19:18:03.474Z,16.50
2019-06-07T19:20:31.288Z,16.50
2019-06-07T19:22:58.771Z,16.50
2019-06-07T19:25:26.244Z,16.50
2019-06-07T19:27:54.980Z,16.50
2019-06-07T19:30:22.628Z,16.50
2019-06-07T19:32:51.374Z,16.50
2019-06-07T19:35:19.558Z,16.50
2019-06-07T19:37:47.060Z,16.50
2019-06-07T19:40:14.935Z,16.50
2019-06-07T19:42:42.399Z,16.40
2019-06-07T19:45:29.729Z,16.40
2019-06-07T19:47:39.857Z,16.30
2019-06-07T19:50:07.480Z,16.20
2019-06-07T19:52:34.938Z,16.00
2019-06-07T19:55:06.636Z,15.70
2019-06-07T19:57:31.769Z,15.40
2019-06-07T19:59:59.567Z,15.20
2019-06-07T20:02:27.156Z,15.00
2019-06-07T20:04:59.172Z,14.80
2019-06-07T20:07:23.952Z,14.30
2019-06-07T20:09:51.711Z,13.70
2019-06-07T20:12:19.235Z,13.50
2019-06-07T20:14:46.803Z,13.50
2019-06-07T20:17:14.263Z,13.30
2019-06-07T20:19:41.744Z,13.10
2019-06-07T20:22:09.536Z,12.70
2019-06-07T20:24:38.135Z,12.80
2019-06-07T20:27:05.769Z,12.80
2019-06-07T20:29:33.320Z,12.90
2019-06-07T20:32:00.846Z,12.90
2019-06-07T20:34:28.320Z,12.90
2019-06-07T20:36:55.860Z,12.90
2019-06-07T20:39:23.706Z,12.90
2019-06-07T20:41:51.226Z,12.90
2019-06-07T20:44:18.719Z,12.90
2019-06-07T20:46:46.169Z,13.00
2019-06-07T20:49:13.676Z,13.00
2019-06-07T20:51:41.540Z,13.00
2019-06-07T20:54:09.345Z,12.90
2019-06-07T20:56:36.807Z,13.00
2019-06-07T20:59:04.781Z,13.10
2019-06-07T21:01:32.348Z,13.10
2019-06-07T21:04:01.022Z,13.10
2019-06-07T21:06:28.586Z,13.20
2019-06-07T21:08:56.182Z,13.20
2019-06-07T21:11:23.634Z,13.10
2019-06-07T21:13:51.114Z,13.20
2019-06-07T21:16:18.594Z,13.30
2019-06-07T21:18:46.074Z,13.20
2019-06-07T21:21:13.515Z,13.30
2019-06-07T21:23:41.000Z,13.40
2019-06-07T21:26:09.035Z,13.50
2019-06-07T21:28:39.683Z,13.40
2019-06-07T21:31:06.563Z,13.40
2019-06-07T21:33:34.163Z,13.40
2019-06-07T21:36:01.628Z,13.30
2019-06-07T21:38:29.169Z,13.20
2019-06-07T21:40:56.644Z,13.30
2019-06-07T21:43:24.185Z,13.20
2019-06-07T21:46:04.471Z,13.10
2019-06-07T21:48:20.929Z,13.20
2019-06-07T21:50:48.376Z,13.20
2019-06-07T21:53:15.858Z,13.10
2019-06-07T21:55:43.346Z,13.10
2019-06-07T21:58:11.243Z,13.20
2019-06-07T22:01:14.390Z,13.10
2019-06-07T22:03:42.063Z,13.00
2019-06-07T22:06:09.765Z,13.10
2019-06-07T22:08:37.304Z,13.10
2019-06-07T22:11:06.087Z,13.10
2019-06-07T22:13:33.738Z,13.20
2019-06-07T22:16:01.459Z,13.20
2019-06-07T22:18:28.896Z,13.20
2019-06-07T22:20:56.350Z,13.20
2019-06-07T22:23:23.791Z,13.20
2019-06-07T22:25:51.281Z,13.30
2019-06-07T22:28:18.726Z,13.20
2019-06-07T22:30:46.234Z,13.30
2019-06-07T22:33:15.054Z,13.40
2019-06-07T22:35:43.307Z,13.40
2019-06-07T22:38:10.790Z,13.40
2019-06-07T22:40:38.526Z,13.40
2019-06-07T22:43:07.267Z,13.30
2019-06-07T22:45:35.986Z,13.40
2019-06-07T22:48:03.903Z,13.40
2019-06-07T22:50:31.505Z,13.30
2019-06-07T22:52:58.981Z,13.30
2019-06-07T22:55:26.475Z,13.30
2019-06-07T22:57:57.811Z,13.30
2019-06-07T23:00:26.743Z,13.40
2019-06-07T23:02:54.521Z,13.30
2019-06-07T23:05:22.060Z,13.40
2019-06-07T23:07:49.555Z,13.50
2019-06-07T23:10:17.428Z,13.40
2019-06-07T23:12:45.036Z,13.50
2019-06-07T23:15:13.328Z,13.50
2019-06-07T23:17:40.955Z,13.50
2019-06-07T23:20:09.648Z,13.50
2019-06-07T23:22:37.159Z,13.50
2019-06-07T23:25:05.266Z,13.50
2019-06-07T23:27:32.738Z,13.50
2019-06-07T23:30:07.965Z,13.50
2019-06-07T23:32:29.830Z,13.50
2019-06-07T23:34:57.318Z,13.50
2019-06-07T23:37:24.822Z,13.40
2019-06-07T23:39:52.307Z,13.30
2019-06-07T23:42:19.808Z,13.30
2019-06-07T23:44:47.217Z,13.20
2019-06-07T23:47:16.979Z,13.20
2019-06-07T23:49:43.934Z,13.30
2019-06-07T23:52:11.837Z,13.30
2019-06-07T23:54:39.510Z,13.30
2019-06-07T23:57:06.988Z,13.30
2019-06-07T23:59:34.476Z,13.30
